Time;durP1;ratioP1;P1;durP2;ratioP2;P2;SDS_P1;SDS_P2;PMS_P1;PMS_P2;Temp;Humidity;BMP_temperature;BMP_pressure;BME280_temperature;BME280_humidity;BME280_pressure;Samples;Min_cycle;Max_cycle;Signal;HPM_P1;HPM_P2
2022/08/03 00:02:30;;;;;;;;;;;;;;;25.39;46.54;95806.47;10237833;28;1760;-68
2022/08/03 00:07:32;;;;;;;;;;;;;;;25.39;46.35;95812.53;10243156;28;1782;-67
2022/08/03 00:12:35;;;;;;;;;;;;;;;25.40;46.22;95805.38;10238241;28;1950;-68
2022/08/03 00:17:36;;;;;;;;;;;;;;;25.39;46.18;95809.13;10242275;28;1882;-68
2022/08/03 00:22:36;;;;;;;;;;;;;;;25.40;46.37;95808.03;10241304;29;1907;-68
2022/08/03 00:27:36;;;;;;;;;;;;;;;25.40;46.30;95802.72;10238332;28;1823;-67
2022/08/03 00:32:37;;;;;;;;;;;;;;;25.40;46.36;95810.69;10236777;28;2675;-68
2022/08/03 00:37:37;;;;;;;;;;;;;;;25.39;46.19;95799.28;10236497;28;1800;-67
2022/08/03 00:42:47;;;;;;;;;;;;;;;25.39;46.12;95812.53;10242300;28;2027;-68
2022/08/03 00:47:48;;;;;;;;;;;;;;;25.38;46.12;95803.03;10237108;28;2013;-67
2022/08/03 00:52:48;;;;;;;;;;;;;;;25.39;46.15;95804.56;10192806;28;1677388;-66
2022/08/03 00:57:49;;;;;;;;;;;;;;;25.40;46.21;95800.84;10230745;28;2117;-67
2022/08/03 01:02:49;;;;;;;;;;;;;;;25.38;46.25;95797.72;10239446;29;1922;-67
2022/08/03 01:08:08;;;;;;;;;;;;;;;25.39;46.29;95793.97;10243466;28;2040;-67
2022/08/03 01:13:18;;;;;;;;;;;;;;;25.39;46.36;95799.28;10244057;28;1979;-69
2022/08/03 01:18:21;;;;;;;;;;;;;;;25.40;46.10;95794.75;10242130;28;1971;-67
2022/08/03 01:23:41;;;;;;;;;;;;;;;25.39;46.51;95793.97;10239537;28;1982;-67
2022/08/03 01:28:42;;;;;;;;;;;;;;;25.39;46.42;95788.66;10243306;28;2133;-68
2022/08/03 01:33:56;;;;;;;;;;;;;;;25.39;46.33;95783.34;10253300;28;1919;-68
2022/08/03 01:39:03;;;;;;;;;;;;;;;25.38;46.41;95781.78;10256472;28;2002;-67
2022/08/03 01:44:14;;;;;;;;;;;;;;;25.38;46.38;95781.78;10239325;28;1953;-67
2022/08/03 01:49:14;;;;;;;;;;;;;;;25.38;46.17;95779.16;10234400;28;2295;-67
2022/08/03 01:54:14;;;;;;;;;;;;;;;25.38;46.28;95773.03;10237152;28;2138;-67
2022/08/03 01:59:15;;;;;;;;;;;;;;;25.39;46.16;95777.28;10232001;28;2382;-67
2022/08/03 02:04:16;;;;;;;;;;;;;;;25.38;46.03;95775.69;10238818;28;2123;-68
2022/08/03 02:09:17;;;;;;;;;;;;;;;25.38;46.12;95776.50;10240233;28;2276;-67
2022/08/03 02:14:18;;;;;;;;;;;;;;;25.37;46.13;95769.59;10239426;28;2011;-67
2022/08/03 02:19:18;;;;;;;;;;;;;;;25.38;46.22;95775.69;10235583;28;1981;-67
2022/08/03 02:24:19;;;;;;;;;;;;;;;25.38;46.10;95778.34;10242819;28;2003;-69
2022/08/03 02:29:20;;;;;;;;;;;;;;;25.37;45.97;95779.44;10238394;28;1948;-68
2022/08/03 02:34:21;;;;;;;;;;;;;;;25.37;45.99;95779.44;10237981;28;1935;-69
2022/08/03 02:39:21;;;;;;;;;;;;;;;25.36;45.96;95778.66;10237440;28;1988;-68
2022/08/03 02:44:23;;;;;;;;;;;;;;;25.38;46.17;95781.00;10233719;28;2029;-68
2022/08/03 02:49:23;;;;;;;;;;;;;;;25.36;46.17;95778.66;10235950;28;1998;-68
2022/08/03 02:54:23;;;;;;;;;;;;;;;25.37;45.88;95776.81;10235370;28;2051;-69
2022/08/03 02:59:24;;;;;;;;;;;;;;;25.37;45.79;95774.16;10218823;28;2035;-68
2022/08/03 03:04:26;;;;;;;;;;;;;;;25.36;45.91;95770.69;10222736;29;2095;-69
2022/08/03 03:09:26;;;;;;;;;;;;;;;25.36;45.75;95773.34;10234288;28;2189;-68
2022/08/03 03:14:27;;;;;;;;;;;;;;;25.36;45.52;95765.41;10249539;28;1985;-68
2022/08/03 03:19:27;;;;;;;;;;;;;;;25.36;45.82;95765.41;10248386;28;1954;-69
2022/08/03 03:24:27;;;;;;;;;;;;;;;25.36;45.66;95762.75;10220153;28;2030;-68
2022/08/03 03:29:28;;;;;;;;;;;;;;;25.36;45.57;95772.56;10238255;28;1952;-69
2022/08/03 03:34:29;;;;;;;;;;;;;;;25.36;45.52;95767.25;10240724;28;1970;-69
2022/08/03 03:39:29;;;;;;;;;;;;;;;25.36;45.70;95773.34;10234385;28;2002;-68
2022/08/03 03:44:29;;;;;;;;;;;;;;;25.36;45.63;95772.56;10229537;28;1946;-68
2022/08/03 03:49:30;;;;;;;;;;;;;;;25.36;45.41;95775.22;10249355;28;2064;-69
2022/08/03 03:54:40;;;;;;;;;;;;;;;25.35;45.45;95782.38;10218870;29;2067;-68
2022/08/03 03:59:40;;;;;;;;;;;;;;;25.34;45.56;95780.84;10238481;28;1945;-69
2022/08/03 04:15:25;;;;;;;;;;;;;;;25.35;45.48;95781.63;10233297;28;1919;-69
2022/08/03 04:20:27;;;;;;;;;;;;;;;25.35;45.36;95785.03;10227671;28;1837;-69
2022/08/03 04:25:29;;;;;;;;;;;;;;;25.35;45.32;95786.94;10250357;28;1841;-68
2022/08/03 04:30:29;;;;;;;;;;;;;;;25.36;45.32;95788.47;10249625;28;1794;-69
2022/08/03 04:35:31;;;;;;;;;;;;;;;25.35;45.17;95789.59;10222701;28;1980;-69
2022/08/03 04:40:35;;;;;;;;;;;;;;;25.35;45.39;95790.34;10246949;28;1775;-68
2022/08/03 04:45:35;;;;;;;;;;;;;;;25.34;45.42;95791.44;10240395;28;1756;-69
2022/08/03 04:50:36;;;;;;;;;;;;;;;25.36;45.41;95799.09;10237989;28;1923;-68
2022/08/03 04:55:36;;;;;;;;;;;;;;;25.35;45.29;95793.00;10238243;28;1919;-69
2022/08/03 05:00:37;;;;;;;;;;;;;;;25.36;45.32;95793.78;10240730;28;2171;-69
2022/08/03 05:05:37;;;;;;;;;;;;;;;25.35;45.18;95798.31;10237179;28;1810;-69
2022/08/03 05:10:37;;;;;;;;;;;;;;;25.36;45.16;95794.59;10235627;28;1849;-68
2022/08/03 05:15:38;;;;;;;;;;;;;;;25.35;45.18;95803.63;10240598;28;1918;-68
2022/08/03 05:20:38;;;;;;;;;;;;;;;25.36;45.35;95812.38;10233203;28;2077;-68
2022/08/03 05:25:39;;;;;;;;;;;;;;;25.36;45.42;95809.72;10242909;28;2021;-68
2022/08/03 05:30:39;;;;;;;;;;;;;;;25.37;45.30;95813.94;10234683;28;1891;-69
2022/08/03 05:35:40;;;;;;;;;;;;;;;25.35;45.53;95816.88;10242538;28;1935;-69
2022/08/03 05:40:40;;;;;;;;;;;;;;;25.36;45.43;95818.47;10241362;28;1779;-69
2022/08/03 05:45:40;;;;;;;;;;;;;;;25.36;45.57;95815.81;10240201;28;1809;-68
2022/08/03 05:50:41;;;;;;;;;;;;;;;25.36;45.46;95821.13;10245024;28;1785;-68
2022/08/03 05:55:41;;;;;;;;;;;;;;;25.36;45.45;95812.38;10249110;28;1950;-68
2022/08/03 06:00:41;;;;;;;;;;;;;;;25.37;45.55;95812.06;10242418;28;1865;-68
2022/08/03 06:05:42;;;;;;;;;;;;;;;25.37;45.91;95812.06;10251687;28;1829;-68
2022/08/03 06:10:42;;;;;;;;;;;;;;;25.37;45.64;95817.38;10238979;28;1860;-69
2022/08/03 06:15:42;;;;;;;;;;;;;;;25.37;45.72;95825.31;10240118;28;1967;-69
2022/08/03 06:20:43;;;;;;;;;;;;;;;25.39;46.00;95819.75;10246573;28;1798;-69
2022/08/03 06:25:43;;;;;;;;;;;;;;;25.39;45.88;95822.38;10241841;28;1843;-68
2022/08/03 06:30:44;;;;;;;;;;;;;;;25.38;46.00;95826.91;10239069;28;1324;-69
2022/08/03 06:35:44;;;;;;;;;;;;;;;25.40;46.18;95834.56;10251200;28;2275;-68
2022/08/03 06:40:45;;;;;;;;;;;;;;;25.40;46.38;95834.56;10250679;28;2308;-68
2022/08/03 06:45:46;;;;;;;;;;;;;;;25.38;46.18;95829.56;10237481;28;1837;-69
2022/08/03 06:50:47;;;;;;;;;;;;;;;25.39;46.39;95828.47;10235084;28;2092;-69
2022/08/03 06:55:51;;;;;;;;;;;;;;;25.40;46.30;95831.91;10235067;28;1979;-69
2022/08/03 07:00:52;;;;;;;;;;;;;;;25.40;46.30;95842.53;10236161;28;1444;-68
2022/08/03 07:05:52;;;;;;;;;;;;;;;25.38;46.23;95834.88;10234917;28;2108;-68
2022/08/03 07:10:53;;;;;;;;;;;;;;;25.39;46.08;95833.78;10237618;28;1933;-67
2022/08/03 07:15:53;;;;;;;;;;;;;;;25.39;46.15;95831.13;10240069;28;1923;-68
2022/08/03 07:20:53;;;;;;;;;;;;;;;25.39;46.10;95831.13;10252212;28;1909;-69
2022/08/03 07:25:55;;;;;;;;;;;;;;;25.40;46.04;95827.38;10230426;29;1879;-68
2022/08/03 07:30:55;;;;;;;;;;;;;;;25.39;46.12;95820.50;10234707;28;1838;-69
2022/08/03 07:35:55;;;;;;;;;;;;;;;25.39;46.09;95820.50;10249586;28;1950;-68
2022/08/03 07:41:00;;;;;;;;;;;;;;;25.39;46.01;95825.81;10233181;28;1896;-68
2022/08/03 07:46:01;;;;;;;;;;;;;;;25.38;45.88;95818.94;10240142;28;1865;-69
2022/08/03 07:51:02;;;;;;;;;;;;;;;25.40;45.98;95815.97;10234153;28;2208;-68
2022/08/03 07:56:03;;;;;;;;;;;;;;;25.41;46.01;95818.34;10234522;28;2046;-68
2022/08/03 08:01:03;;;;;;;;;;;;;;;25.41;46.02;95807.75;10234561;28;1922;-69
2022/08/03 08:06:03;;;;;;;;;;;;;;;25.41;46.11;95812.28;10235822;28;1902;-68
2022/08/03 08:11:04;;;;;;;;;;;;;;;25.41;46.34;95812.28;10250284;28;2268;-69
2022/08/03 08:16:07;;;;;;;;;;;;;;;25.43;46.14;95807.47;10236149;28;1963;-68
2022/08/03 08:21:07;;;;;;;;;;;;;;;25.43;46.17;95805.56;10245036;28;2108;-68
2022/08/03 08:26:09;;;;;;;;;;;;;;;25.42;46.22;95811.19;10239362;28;1818;-68
2022/08/03 08:31:09;;;;;;;;;;;;;;;25.42;46.07;95808.53;10243505;28;1870;-68
2022/08/03 08:36:09;;;;;;;;;;;;;;;25.41;45.79;95804.31;10245587;28;2425;-68
2022/08/03 08:41:10;;;;;;;;;;;;;;;25.42;46.20;95809.31;10241324;28;1863;-69
2022/08/03 08:46:13;;;;;;;;;;;;;;;25.43;46.16;95808.22;10243243;28;1874;-69
2022/08/03 08:51:13;;;;;;;;;;;;;;;25.44;46.27;95791.22;10245355;28;2147;-68
2022/08/03 08:56:15;;;;;;;;;;;;;;;25.44;46.13;95796.53;10243972;28;1926;-69
2022/08/03 09:01:16;;;;;;;;;;;;;;;25.44;46.28;95801.84;10241915;28;1851;-68
2022/08/03 09:06:17;;;;;;;;;;;;;;;25.44;46.09;95796.53;10240130;28;2143;-69
2022/08/03 09:11:21;;;;;;;;;;;;;;;25.46;46.15;95793.56;10236871;28;1837;-75
2022/08/03 09:16:23;;;;;;;;;;;;;;;25.46;46.13;95793.56;10236613;28;1910;-69
2022/08/03 09:21:24;;;;;;;;;;;;;;;25.46;46.29;95793.56;10238127;28;1860;-69
2022/08/03 09:26:25;;;;;;;;;;;;;;;25.47;46.01;95785.28;10239952;28;1848;-69
2022/08/03 09:31:44;;;;;;;;;;;;;;;25.47;45.92;95787.94;10238270;28;1756;-69
2022/08/03 09:36:45;;;;;;;;;;;;;;;25.47;45.97;95784.53;10240186;28;1800;-67
2022/08/03 09:41:46;;;;;;;;;;;;;;;25.48;45.98;95786.88;10243997;28;1838;-68
2022/08/03 09:46:51;;;;;;;;;;;;;;;25.49;46.24;95791.09;10240422;28;1847;-68
2022/08/03 09:51:52;;;;;;;;;;;;;;;25.49;46.25;95780.47;10237745;28;1918;-68
2022/08/03 09:56:52;;;;;;;;;;;;;;;25.51;46.16;95785.50;10239813;28;1827;-67
2022/08/03 10:01:53;;;;;;;;;;;;;;;25.51;46.24;95786.25;10234993;28;1759;-67
2022/08/03 10:07:02;;;;;;;;;;;;;;;25.51;46.44;95780.19;10233454;28;1865;-67
2022/08/03 10:12:10;;;;;;;;;;;;;;;25.52;46.20;95784.38;10254507;28;1983;-67
2022/08/03 10:17:10;;;;;;;;;;;;;;;25.53;46.38;95789.38;10235013;28;1860;-65
2022/08/03 10:22:12;;;;;;;;;;;;;;;25.53;46.17;95788.63;10234943;28;1868;-67
2022/08/03 10:27:12;;;;;;;;;;;;;;;25.54;46.42;95775.03;10237124;28;1864;-68
2022/08/03 10:32:15;;;;;;;;;;;;;;;25.54;46.36;95775.03;10223994;29;1983;-67
2022/08/03 10:37:15;;;;;;;;;;;;;;;25.55;46.45;95771.31;10233661;28;1832;-68
2022/08/03 10:42:15;;;;;;;;;;;;;;;25.57;46.44;95768.34;10233269;28;1924;-67
2022/08/03 10:47:15;;;;;;;;;;;;;;;25.57;46.18;95771.00;10254655;28;1828;-67
2022/08/03 10:52:16;;;;;;;;;;;;;;;25.58;46.40;95759.28;10228594;28;1914;-67
2022/08/03 10:57:36;;;;;;;;;;;;;;;25.58;46.67;95749.47;10239800;28;1866;-69
2022/08/03 11:02:55;;;;;;;;;;;;;;;25.58;46.52;95746.81;10237678;28;1714;-68
2022/08/03 11:08:22;;;;;;;;;;;;;;;25.59;46.53;95740.41;10239126;28;1868;-69
2022/08/03 11:13:23;;;;;;;;;;;;;;;25.60;46.44;95741.97;10236647;28;1992;-67
2022/08/03 11:18:24;;;;;;;;;;;;;;;25.61;46.62;95743.56;10231993;28;1879;-67
2022/08/03 11:23:40;;;;;;;;;;;;;;;25.62;46.52;95739.78;10236440;28;1915;-67
2022/08/03 11:28:41;;;;;;;;;;;;;;;25.63;46.51;95740.59;10232451;28;2168;-67
2022/08/03 11:33:41;;;;;;;;;;;;;;;25.62;46.44;95737.13;10235433;28;1973;-67
2022/08/03 11:39:01;;;;;;;;;;;;;;;25.64;46.61;95739.47;10231044;28;2243;-68
2022/08/03 11:44:06;;;;;;;;;;;;;;;25.65;46.53;95741.84;10235384;28;1825;-67
2022/08/03 11:49:06;;;;;;;;;;;;;;;25.65;46.60;95739.19;10241688;28;1853;-67
2022/08/03 11:54:06;;;;;;;;;;;;;;;25.65;46.70;95728.56;10257295;28;1910;-67
2022/08/03 11:59:07;;;;;;;;;;;;;;;25.66;46.50;95724.81;10244666;28;2400;-68
2022/08/03 12:04:09;;;;;;;;;;;;;;;25.67;46.49;95722.94;10242111;28;1810;-68
2022/08/03 12:09:16;;;;;;;;;;;;;;;25.69;46.41;95715.47;10242108;28;1795;-68
2022/08/03 12:14:16;;;;;;;;;;;;;;;25.68;46.42;95714.69;10239478;28;1922;-68
2022/08/03 12:19:17;;;;;;;;;;;;;;;25.69;46.58;95708.28;10243221;28;1514;-68
2022/08/03 12:24:17;;;;;;;;;;;;;;;25.68;46.40;95704.06;10243191;29;1830;-70
2022/08/03 12:29:18;;;;;;;;;;;;;;;25.70;46.57;95704.53;10259687;28;1754;-68
2022/08/03 12:34:18;;;;;;;;;;;;;;;25.71;46.56;95700.00;10239141;28;1981;-69
2022/08/03 12:39:21;;;;;;;;;;;;;;;25.71;46.56;95703.47;10244914;29;1834;-67
2022/08/03 12:44:28;;;;;;;;;;;;;;;25.71;46.49;95706.09;10240728;28;1809;-67
2022/08/03 12:49:43;;;;;;;;;;;;;;;25.72;46.42;95696.25;10240392;28;1829;-67
2022/08/03 12:54:58;;;;;;;;;;;;;;;25.72;46.46;95683.75;10240949;28;1915;-67
2022/08/03 12:59:58;;;;;;;;;;;;;;;25.73;46.39;95682.69;10240075;28;1753;-67
2022/08/03 13:05:00;;;;;;;;;;;;;;;25.73;46.39;95693.31;10244155;28;1857;-67
2022/08/03 13:10:01;;;;;;;;;;;;;;;25.74;46.41;95689.56;10241634;28;1821;-68
2022/08/03 13:15:02;;;;;;;;;;;;;;;25.74;46.51;95689.56;10248254;28;1911;-67
2022/08/03 13:20:02;;;;;;;;;;;;;;;25.74;46.57;95684.25;10244497;28;1840;-68
2022/08/03 13:25:03;;;;;;;;;;;;;;;25.75;46.38;95683.16;10249082;28;1872;-68
2022/08/03 13:30:03;;;;;;;;;;;;;;;25.75;46.54;95685.81;10245347;28;1895;-68
2022/08/03 13:35:04;;;;;;;;;;;;;;;25.76;46.61;95674.09;10242755;28;1989;-68
2022/08/03 13:40:06;;;;;;;;;;;;;;;25.77;46.41;95677.53;10235006;28;1925;-68
2022/08/03 13:45:07;;;;;;;;;;;;;;;25.76;46.37;95668.78;10239947;28;2039;-69
2022/08/03 13:50:08;;;;;;;;;;;;;;;25.77;46.44;95661.59;10237225;28;1778;-68
2022/08/03 13:55:08;;;;;;;;;;;;;;;25.77;46.51;95658.94;10250440;28;1992;-69
2022/08/03 14:00:09;;;;;;;;;;;;;;;25.77;46.56;95648.34;10254272;28;1770;-68
2022/08/03 14:05:10;;;;;;;;;;;;;;;25.78;46.52;95648.00;10239886;28;1895;-69
2022/08/03 14:10:10;;;;;;;;;;;;;;;25.77;46.46;95646.47;10235713;28;1841;-68
2022/08/03 14:15:12;;;;;;;;;;;;;;;25.77;46.55;95632.41;10233864;28;1915;-69
2022/08/03 14:20:13;;;;;;;;;;;;;;;25.79;46.49;95640.84;10240444;29;1917;-69
2022/08/03 14:25:13;;;;;;;;;;;;;;;25.79;46.41;95632.88;10240755;28;1861;-69
2022/08/03 14:30:14;;;;;;;;;;;;;;;25.79;46.56;95636.31;10238228;28;1821;-68
2022/08/03 14:35:14;;;;;;;;;;;;;;;25.80;46.58;95634.44;10237225;28;1974;-69
2022/08/03 14:40:15;;;;;;;;;;;;;;;25.80;46.66;95640.53;10236954;28;1990;-68
2022/08/03 14:45:15;;;;;;;;;;;;;;;25.80;46.55;95632.56;10238900;28;1817;-69
2022/08/03 14:50:15;;;;;;;;;;;;;;;25.80;46.58;95619.28;10239993;28;1893;-69
2022/08/03 14:55:16;;;;;;;;;;;;;;;25.80;46.55;95629.13;10240901;28;1910;-69
2022/08/03 15:00:16;;;;;;;;;;;;;;;25.80;46.68;95624.59;10251570;28;1842;-69
2022/08/03 15:05:16;;;;;;;;;;;;;;;25.81;46.38;95623.50;10241134;28;1854;-69
2022/08/03 15:10:17;;;;;;;;;;;;;;;25.80;46.52;95616.63;10234537;28;1846;-69
2022/08/03 15:15:17;;;;;;;;;;;;;;;25.80;46.51;95619.28;10236577;28;1919;-69
2022/08/03 15:20:18;;;;;;;;;;;;;;;25.80;46.54;95608.66;10234402;28;1843;-69
2022/08/03 15:25:18;;;;;;;;;;;;;;;25.82;46.48;95611.03;10232855;28;1832;-69
2022/08/03 15:30:19;;;;;;;;;;;;;;;25.81;46.50;95609.44;10251494;28;1837;-69
2022/08/03 15:35:19;;;;;;;;;;;;;;;25.80;46.48;95608.66;10244163;28;1911;-69
2022/08/03 15:40:19;;;;;;;;;;;;;;;25.82;46.59;95611.03;10249893;28;1768;-69
2022/08/03 15:45:20;;;;;;;;;;;;;;;25.82;46.63;95603.81;10233860;28;1869;-69
2022/08/03 15:50:20;;;;;;;;;;;;;;;25.82;46.52;95608.38;10237654;28;1844;-69
2022/08/03 15:55:20;;;;;;;;;;;;;;;25.82;46.39;95601.16;10234198;28;2235;-69
2022/08/03 16:00:20;;;;;;;;;;;;;;;25.82;46.42;95601.16;10236529;28;1840;-69
2022/08/03 16:05:21;;;;;;;;;;;;;;;25.82;46.51;95600.41;10237873;28;1850;-67
2022/08/03 16:10:21;;;;;;;;;;;;;;;25.83;46.39;95604.59;10234283;28;1825;-67
2022/08/03 16:15:22;;;;;;;;;;;;;;;25.82;46.46;95598.50;10233175;28;1973;-67
2022/08/03 16:20:22;;;;;;;;;;;;;;;25.82;46.47;95598.50;10228195;28;1889;-67
2022/08/03 16:25:22;;;;;;;;;;;;;;;25.83;46.42;95596.63;10233825;28;1836;-67
2022/08/03 16:30:23;;;;;;;;;;;;;;;25.83;46.37;95597.44;10236511;28;1853;-68
2022/08/03 16:35:23;;;;;;;;;;;;;;;25.83;46.37;95597.44;10244372;28;1973;-67
2022/08/03 16:40:24;;;;;;;;;;;;;;;25.83;46.39;95594.78;10239129;28;1821;-67
2022/08/03 16:45:24;;;;;;;;;;;;;;;25.83;46.43;95596.63;10240496;28;1735;-67
2022/08/03 16:50:24;;;;;;;;;;;;;;;25.83;46.31;95594.78;10242040;28;1926;-67
2022/08/03 16:55:25;;;;;;;;;;;;;;;25.83;46.39;95597.44;10253366;28;1985;-67
2022/08/03 17:00:25;;;;;;;;;;;;;;;25.84;46.30;95592.91;10255507;28;1952;-67
2022/08/03 17:05:26;;;;;;;;;;;;;;;25.84;46.32;95598.97;10240243;28;1845;-68
2022/08/03 17:10:26;;;;;;;;;;;;;;;25.83;46.29;95594.78;10237612;28;1853;-68
2022/08/03 17:15:27;;;;;;;;;;;;;;;25.84;46.39;95598.22;10246862;28;1895;-68
2022/08/03 17:20:27;;;;;;;;;;;;;;;25.84;46.33;95596.31;10239742;28;1841;-68
2022/08/03 17:25:27;;;;;;;;;;;;;;;25.84;46.24;95604.28;10240298;28;1899;-68
2022/08/03 17:31:13;;;;;;;;;;;;;;;25.84;46.16;95600.88;10255273;28;1821;-67
2022/08/03 17:35:54;;;;;;;;;;;;;;;25.83;46.16;95602.75;10244531;28;1898;-68
2022/08/03 17:40:54;;;;;;;;;;;;;;;25.84;46.31;95606.19;10244709;29;1862;-69
2022/08/03 17:45:54;;;;;;;;;;;;;;;25.84;46.37;95608.84;10241471;28;1828;-69
2022/08/03 17:51:05;;;;;;;;;;;;;;;25.83;46.04;95605.41;10225298;29;1822;-68
2022/08/03 17:56:17;;;;;;;;;;;;;;;25.84;46.24;95617.56;10237867;29;2066;-68
2022/08/03 18:06:37;;;;;;;;;;;;;;;25.84;46.15;95630.09;10241459;28;1827;-68
2022/08/03 18:11:38;;;;;;;;;;;;;;;25.86;46.11;95637.72;10239623;28;1861;-69
2022/08/03 18:16:42;;;;;;;;;;;;;;;25.86;46.04;95640.38;10240396;28;2024;-69
2022/08/03 18:21:42;;;;;;;;;;;;;;;25.86;46.30;95645.69;10240380;28;1769;-69
2022/08/03 18:26:42;;;;;;;;;;;;;;;25.86;46.03;95635.06;10239361;28;1911;-69
2022/08/03 18:31:43;;;;;;;;;;;;;;;25.87;46.25;95644.59;10250147;28;1762;-69
2022/08/03 18:36:44;;;;;;;;;;;;;;;25.84;46.18;95646.78;10241441;28;1988;-69
2022/08/03 18:41:45;;;;;;;;;;;;;;;25.84;46.09;95649.44;10233919;28;2192;-69
2022/08/03 18:47:00;;;;;;;;;;;;;;;25.86;46.28;95649.16;10241535;28;1833;-69
2022/08/03 18:52:05;;;;;;;;;;;;;;;25.86;46.17;95659.78;10242323;28;1958;-69
2022/08/03 18:57:06;;;;;;;;;;;;;;;25.86;46.27;95653.66;10225489;28;1853;-68
2022/08/03 19:02:09;;;;;;;;;;;;;;;25.88;46.23;95659.44;10238199;28;1891;-69
2022/08/03 19:07:09;;;;;;;;;;;;;;;25.86;46.24;95656.31;10250949;28;1842;-69
2022/08/03 19:12:14;;;;;;;;;;;;;;;25.88;46.35;95659.44;10250877;28;1960;-69
2022/08/03 19:17:15;;;;;;;;;;;;;;;25.88;46.17;95662.91;10235333;28;1865;-69
2022/08/03 19:22:15;;;;;;;;;;;;;;;25.88;46.22;95665.56;10254352;28;1876;-69
2022/08/03 19:27:15;;;;;;;;;;;;;;;25.87;46.29;95665.84;10236355;29;1842;-69
2022/08/03 19:32:17;;;;;;;;;;;;;;;25.87;46.01;95671.94;10235994;28;1952;-69
2022/08/03 19:37:17;;;;;;;;;;;;;;;25.87;46.24;95671.94;10256210;28;1882;-69
2022/08/03 19:42:20;;;;;;;;;;;;;;;25.88;46.21;95675.38;10234323;28;1793;-69
2022/08/03 19:47:37;;;;;;;;;;;;;;;25.87;46.15;95671.94;10235989;28;1942;-69
2022/08/03 19:52:38;;;;;;;;;;;;;;;25.88;46.24;95670.06;10250418;28;2066;-69
2022/08/03 19:57:39;;;;;;;;;;;;;;;25.89;46.09;95679.59;10236288;28;1787;-69
2022/08/03 20:02:39;;;;;;;;;;;;;;;25.89;46.17;95674.28;10218854;28;1835;-69
2022/08/03 20:07:40;;;;;;;;;;;;;;;25.88;46.23;95667.41;10234827;28;1892;-69
2022/08/03 20:12:44;;;;;;;;;;;;;;;25.88;46.17;95667.41;10243760;29;1962;-69
2022/08/03 20:17:44;;;;;;;;;;;;;;;25.89;46.10;95671.63;10242252;28;1846;-69
2022/08/03 20:22:46;;;;;;;;;;;;;;;25.88;46.21;95676.16;10247077;28;1821;-69
2022/08/03 20:27:47;;;;;;;;;;;;;;;25.88;46.03;95668.22;10243182;28;1841;-69
2022/08/03 20:32:47;;;;;;;;;;;;;;;25.88;46.16;95670.06;10245193;28;1976;-70
2022/08/03 20:37:48;;;;;;;;;;;;;;;25.89;46.20;95675.06;10260848;28;2089;-69
2022/08/03 20:42:50;;;;;;;;;;;;;;;25.89;46.19;95671.63;10239330;28;1771;-69
2022/08/03 20:47:51;;;;;;;;;;;;;;;25.88;46.29;95678.03;10247429;28;1872;-69
2022/08/03 20:52:51;;;;;;;;;;;;;;;25.89;46.20;95671.63;10245720;28;1962;-69
2022/08/03 20:57:53;;;;;;;;;;;;;;;25.89;46.08;95671.63;10241560;28;1868;-69
2022/08/03 21:02:54;;;;;;;;;;;;;;;25.90;46.05;95675.84;10238514;28;1890;-69
2022/08/03 21:08:00;;;;;;;;;;;;;;;25.89;46.02;95674.28;10242838;28;1959;-69
2022/08/03 21:13:00;;;;;;;;;;;;;;;25.90;46.20;95665.22;10236552;28;2228;-69
2022/08/03 21:18:03;;;;;;;;;;;;;;;25.90;46.07;95665.22;10241341;28;1928;-69
2022/08/03 21:23:04;;;;;;;;;;;;;;;25.90;46.11;95665.22;10241329;28;1843;-69
2022/08/03 21:28:06;;;;;;;;;;;;;;;25.90;45.94;95667.88;10228714;29;1909;-69
2022/08/03 21:33:06;;;;;;;;;;;;;;;25.89;46.02;95664.44;10240513;28;2151;-69
2022/08/03 21:38:19;;;;;;;;;;;;;;;25.89;46.22;95659.13;10249993;28;1891;-69
2022/08/03 21:43:20;;;;;;;;;;;;;;;25.89;45.99;95658.34;10246486;28;1852;-69
2022/08/03 21:48:21;;;;;;;;;;;;;;;25.90;46.05;95654.63;10246414;28;1888;-69
2022/08/03 21:53:21;;;;;;;;;;;;;;;25.89;46.12;95663.66;10244600;28;1969;-69
2022/08/03 21:58:24;;;;;;;;;;;;;;;25.89;46.02;95658.34;10243619;28;1777;-69
2022/08/03 22:03:24;;;;;;;;;;;;;;;25.89;46.26;95651.16;10237331;28;1833;-69
2022/08/03 22:08:25;;;;;;;;;;;;;;;25.89;46.17;95655.69;10242117;28;2441;-69
2022/08/03 22:13:25;;;;;;;;;;;;;;;25.90;46.05;95654.63;10253655;28;2369;-68
2022/08/03 22:18:26;;;;;;;;;;;;;;;25.89;45.80;95653.81;10245990;28;1843;-69
2022/08/03 22:23:27;;;;;;;;;;;;;;;25.90;46.15;95659.91;10256735;28;1945;-69
2022/08/03 22:28:28;;;;;;;;;;;;;;;25.89;46.15;95655.69;10236033;28;1858;-69
2022/08/03 22:33:29;;;;;;;;;;;;;;;25.89;46.17;95653.81;10237226;29;1879;-69
2022/08/03 22:38:29;;;;;;;;;;;;;;;25.88;46.20;95649.63;10239449;28;1839;-69
2022/08/03 22:43:29;;;;;;;;;;;;;;;25.90;46.01;95651.97;10239671;28;1838;-69
2022/08/03 22:48:33;;;;;;;;;;;;;;;25.89;46.13;95653.81;10252499;28;1857;-69
2022/08/03 22:53:34;;;;;;;;;;;;;;;25.90;46.00;95649.28;10251143;28;1981;-69
2022/08/03 22:58:34;;;;;;;;;;;;;;;25.88;45.95;95646.16;10236046;28;1821;-69
2022/08/03 23:03:36;;;;;;;;;;;;;;;25.89;46.17;95653.03;10236242;28;1893;-69
2022/08/03 23:08:37;;;;;;;;;;;;;;;25.88;46.17;95652.28;10253026;28;1715;-69
2022/08/03 23:13:37;;;;;;;;;;;;;;;25.90;46.09;95659.91;10238207;28;2290;-69
2022/08/03 23:18:38;;;;;;;;;;;;;;;25.89;46.10;95651.16;10223456;28;2165;-69
2022/08/03 23:23:40;;;;;;;;;;;;;;;25.89;46.04;95655.69;10238034;28;2125;-69
2022/08/03 23:28:42;;;;;;;;;;;;;;;25.89;46.08;95653.03;10238518;28;2120;-69
2022/08/03 23:33:43;;;;;;;;;;;;;;;25.90;46.00;95654.63;10235506;28;2210;-69
2022/08/03 23:38:44;;;;;;;;;;;;;;;25.89;46.02;95655.69;10237290;28;2155;-69
2022/08/03 23:43:44;;;;;;;;;;;;;;;25.90;46.02;95654.63;10236465;28;2203;-69
2022/08/03 23:48:44;;;;;;;;;;;;;;;25.89;45.95;95639.75;10237888;28;2030;-69
2022/08/03 23:54:08;;;;;;;;;;;;;;;25.90;45.86;95646.66;10248048;28;2252;-69
2022/08/03 23:59:13;;;;;;;;;;;;;;;25.88;46.00;95636.34;10235086;28;1972;-68
